Time;durP1;ratioP1;P1;durP2;ratioP2;P2;SDS_P1;SDS_P2;PMS_P1;PMS_P2;Temp;Humidity;BMP_temperature;BMP_pressure;BME280_temperature;BME280_humidity;BME280_pressure;Samples;Min_cycle;Max_cycle;Signal;HPM_P1;HPM_P2
2024/03/22 00:00:16;;;;;;;53.10;18.23;;;6.30;100.00;;;;;;4929360;29;20077;-73
2024/03/22 00:02:42;;;;;;;56.63;17.92;;;6.30;100.00;;;;;;4941220;28;20062;-73
2024/03/22 00:05:08;;;;;;;62.75;16.67;;;6.30;100.00;;;;;;4928634;29;20055;-73
2024/03/22 00:07:34;;;;;;;51.60;17.20;;;6.30;100.00;;;;;;4944704;29;20494;-73
2024/03/22 00:10:00;;;;;;;42.65;15.95;;;6.30;100.00;;;;;;4945679;28;20170;-74
2024/03/22 00:12:26;;;;;;;57.50;17.98;;;6.30;100.00;;;;;;4943745;29;20047;-73
2024/03/22 00:14:54;;;;;;;55.72;18.15;;;6.40;100.00;;;;;;4944660;29;20066;-73
2024/03/22 00:17:21;;;;;;;51.45;17.10;;;6.40;100.00;;;;;;4945370;29;20047;-73
2024/03/22 00:19:46;;;;;;;47.95;16.52;;;6.40;100.00;;;;;;4945107;29;20061;-73
2024/03/22 00:22:12;;;;;;;50.63;16.65;;;6.40;100.00;;;;;;4944450;28;20146;-73
2024/03/22 00:24:38;;;;;;;50.15;16.13;;;6.40;100.00;;;;;;4944517;28;20641;-74
2024/03/22 00:27:04;;;;;;;55.53;16.30;;;6.40;100.00;;;;;;4929390;29;20071;-73
2024/03/22 00:29:30;;;;;;;49.08;16.17;;;6.40;100.00;;;;;;4944088;29;20070;-74
2024/03/22 00:31:56;;;;;;;50.97;16.23;;;6.40;100.00;;;;;;4941140;29;20560;-73
2024/03/22 00:34:22;;;;;;;53.10;15.15;;;6.40;100.00;;;;;;4943659;28;20054;-73
2024/03/22 00:36:48;;;;;;;50.90;16.23;;;6.40;100.00;;;;;;4944323;28;20078;-74
2024/03/22 00:39:13;;;;;;;44.42;15.55;;;6.40;100.00;;;;;;4945234;29;20058;-74
2024/03/22 00:41:39;;;;;;;60.17;16.52;;;6.40;100.00;;;;;;4940410;28;20692;-74
2024/03/22 00:44:05;;;;;;;52.40;16.10;;;6.40;100.00;;;;;;4942635;28;20046;-73
2024/03/22 00:46:31;;;;;;;57.03;17.33;;;6.40;100.00;;;;;;4944693;29;20150;-74
2024/03/22 00:48:58;;;;;;;52.10;16.13;;;6.40;100.00;;;;;;4944874;29;20054;-74
2024/03/22 00:51:25;;;;;;;46.85;15.15;;;6.40;100.00;;;;;;4936268;28;20472;-73
2024/03/22 00:53:51;;;;;;;39.70;14.20;;;6.40;100.00;;;;;;4943244;28;20047;-73
2024/03/22 00:56:17;;;;;;;52.45;16.17;;;6.40;100.00;;;;;;4944594;29;20848;-73
2024/03/22 00:58:43;;;;;;;40.05;14.30;;;6.40;100.00;;;;;;4925176;29;20051;-73
2024/03/22 01:01:08;;;;;;;44.65;14.77;;;6.40;100.00;;;;;;4928473;28;20118;-73
2024/03/22 01:03:34;;;;;;;44.63;14.82;;;6.40;100.00;;;;;;4943961;28;20063;-73
2024/03/22 01:06:00;;;;;;;51.55;14.65;;;6.40;100.00;;;;;;4928690;29;20066;-73
2024/03/22 01:08:26;;;;;;;37.13;13.82;;;6.40;100.00;;;;;;4936895;29;20056;-73
2024/03/22 01:10:52;;;;;;;42.58;14.45;;;6.40;100.00;;;;;;4928343;29;20087;-74
2024/03/22 01:13:18;;;;;;;45.85;14.35;;;6.40;100.00;;;;;;4942669;28;20050;-73
2024/03/22 01:15:45;;;;;;;35.47;13.40;;;6.40;100.00;;;;;;4932271;29;20054;-73
2024/03/22 01:18:12;;;;;;;41.20;12.77;;;6.40;100.00;;;;;;4932442;29;20830;-74
2024/03/22 01:20:38;;;;;;;52.35;13.55;;;6.40;100.00;;;;;;4948746;29;20051;-73
2024/03/22 01:23:04;;;;;;;44.22;12.70;;;6.40;100.00;;;;;;4944796;28;20083;-74
2024/03/22 01:25:30;;;;;;;40.38;13.70;;;6.40;100.00;;;;;;4946302;28;20059;-73
2024/03/22 01:27:56;;;;;;;34.22;10.82;;;6.40;100.00;;;;;;4944410;29;20574;-73
2024/03/22 01:30:22;;;;;;;43.78;12.48;;;6.50;100.00;;;;;;4947900;28;20059;-73
2024/03/22 01:32:48;;;;;;;39.97;12.32;;;6.50;100.00;;;;;;4930637;29;20051;-73
2024/03/22 01:35:14;;;;;;;33.33;11.45;;;6.50;100.00;;;;;;4947675;29;20138;-73
2024/03/22 01:37:40;;;;;;;32.45;11.80;;;6.50;100.00;;;;;;4947988;29;20079;-73
2024/03/22 01:40:08;;;;;;;50.58;11.95;;;6.50;100.00;;;;;;4947196;28;20130;-73
2024/03/22 01:42:34;;;;;;;40.05;11.88;;;6.50;100.00;;;;;;4944189;28;20051;-73
2024/03/22 01:44:59;;;;;;;33.05;11.60;;;6.60;100.00;;;;;;4946456;28;20054;-73
2024/03/22 01:47:26;;;;;;;41.65;11.57;;;6.60;100.00;;;;;;4945254;29;20087;-73
2024/03/22 01:49:54;;;;;;;33.95;11.13;;;6.60;100.00;;;;;;4932222;29;20158;-73
2024/03/22 01:52:20;;;;;;;42.75;13.02;;;6.60;100.00;;;;;;4945885;28;20055;-73
2024/03/22 01:54:46;;;;;;;38.00;11.80;;;6.70;100.00;;;;;;4948017;28;20083;-73
2024/03/22 01:57:12;;;;;;;42.70;10.60;;;6.70;100.00;;;;;;4946413;28;20547;-73
2024/03/22 01:59:39;;;;;;;38.72;12.38;;;6.70;100.00;;;;;;4931196;29;20059;-73
2024/03/22 02:02:05;;;;;;;29.42;10.70;;;6.70;100.00;;;;;;4946176;29;20066;-74
2024/03/22 02:04:31;;;;;;;33.88;10.75;;;6.70;100.00;;;;;;4924612;29;20056;-74
2024/03/22 02:06:57;;;;;;;37.28;10.90;;;6.70;100.00;;;;;;4947121;29;20432;-73
2024/03/22 02:09:23;;;;;;;35.42;10.80;;;6.80;100.00;;;;;;4946807;29;20043;-74
2024/03/22 02:11:50;;;;;;;32.60;11.00;;;6.70;100.00;;;;;;4930170;29;20071;-73
2024/03/22 02:14:16;;;;;;;43.47;11.52;;;6.80;100.00;;;;;;4940779;29;20072;-74
2024/03/22 02:16:42;;;;;;;34.20;11.50;;;6.80;100.00;;;;;;4942526;28;20206;-74
2024/03/22 02:19:10;;;;;;;37.70;12.40;;;6.80;100.00;;;;;;4929398;29;20133;-74
2024/03/22 02:21:38;;;;;;;38.63;11.55;;;6.80;100.00;;;;;;4931009;29;20063;-74
2024/03/22 02:24:05;;;;;;;35.15;12.30;;;6.80;100.00;;;;;;4947309;28;20058;-73
2024/03/22 02:26:31;;;;;;;34.40;11.80;;;6.90;100.00;;;;;;4925131;28;20070;-73
2024/03/22 02:28:56;;;;;;;37.47;11.38;;;6.90;100.00;;;;;;4930917;29;20043;-73
2024/03/22 02:31:22;;;;;;;37.65;11.48;;;6.90;100.00;;;;;;4945221;28;20476;-73
2024/03/22 02:33:48;;;;;;;36.65;11.50;;;6.90;100.00;;;;;;4930683;28;21554;-73
2024/03/22 02:36:14;;;;;;;33.08;11.38;;;6.90;100.00;;;;;;4945390;28;20055;-73
2024/03/22 02:38:40;;;;;;;31.65;12.02;;;6.90;100.00;;;;;;4942623;28;20496;-73
2024/03/22 02:41:05;;;;;;;32.30;11.20;;;6.90;100.00;;;;;;4931841;29;20468;-73
2024/03/22 02:43:31;;;;;;;33.72;11.68;;;7.00;100.00;;;;;;4941046;28;20063;-73
2024/03/22 02:45:57;;;;;;;38.60;11.75;;;6.90;100.00;;;;;;4928303;29;20074;-74
2024/03/22 02:48:23;;;;;;;32.35;10.95;;;7.00;100.00;;;;;;4946490;28;20464;-73
2024/03/22 02:50:49;;;;;;;38.72;11.95;;;7.00;100.00;;;;;;4945311;28;20047;-74
2024/03/22 02:53:14;;;;;;;27.95;10.95;;;7.00;100.00;;;;;;4930586;29;20141;-73
2024/03/22 02:55:41;;;;;;;35.05;12.00;;;7.00;100.00;;;;;;4946498;28;20062;-73
2024/03/22 02:58:07;;;;;;;40.92;12.38;;;7.00;100.00;;;;;;4947004;29;20056;-73
2024/03/22 03:00:40;;;;;;;35.67;11.50;;;7.00;100.00;;;;;;4947147;29;20673;-73
2024/03/22 03:03:06;;;;;;;28.17;11.10;;;7.00;100.00;;;;;;4944982;28;20058;-73
2024/03/22 03:05:32;;;;;;;41.72;13.02;;;7.00;100.00;;;;;;4945272;28;20062;-73
2024/03/22 03:07:58;;;;;;;28.40;12.15;;;7.00;100.00;;;;;;4937749;28;20043;-73
2024/03/22 03:10:24;;;;;;;36.30;11.73;;;7.00;100.00;;;;;;4946332;28;20046;-73
2024/03/22 03:12:50;;;;;;;31.42;11.20;;;7.10;100.00;;;;;;4930108;29;20051;-73
2024/03/22 03:15:18;;;;;;;32.53;11.45;;;7.10;100.00;;;;;;4951295;28;20055;-73
2024/03/22 03:17:44;;;;;;;30.80;12.32;;;7.10;100.00;;;;;;4922622;29;20394;-74
2024/03/22 03:20:13;;;;;;;27.48;12.43;;;7.10;100.00;;;;;;4945837;29;20106;-73
2024/03/22 03:22:42;;;;;;;35.42;13.07;;;7.10;100.00;;;;;;4940265;28;20155;-73
2024/03/22 03:25:08;;;;;;;33.03;12.68;;;7.10;100.00;;;;;;4946085;28;20129;-73
2024/03/22 03:27:34;;;;;;;36.80;13.15;;;7.20;100.00;;;;;;4939229;28;20062;-73
2024/03/22 03:30:00;;;;;;;30.35;13.30;;;7.20;100.00;;;;;;4949755;28;20094;-73
2024/03/22 03:32:27;;;;;;;40.03;12.68;;;7.20;100.00;;;;;;4944730;28;20507;-73
2024/03/22 03:34:53;;;;;;;30.65;14.10;;;7.20;100.00;;;;;;4938025;28;20123;-73
2024/03/22 03:37:19;;;;;;;31.60;13.48;;;7.20;100.00;;;;;;4940372;28;20140;-73
2024/03/22 03:39:45;;;;;;;35.38;13.80;;;7.20;100.00;;;;;;4945881;28;20063;-73
2024/03/22 03:42:11;;;;;;;42.25;13.55;;;7.20;100.00;;;;;;4924100;29;20059;-73
2024/03/22 03:44:37;;;;;;;44.28;14.85;;;7.20;100.00;;;;;;4943188;28;20054;-73
2024/03/22 03:47:03;;;;;;;34.60;13.13;;;7.30;100.00;;;;;;4943679;29;20051;-73
2024/03/22 03:49:29;;;;;;;47.70;15.40;;;7.30;100.00;;;;;;4941393;28;20051;-73
2024/03/22 03:51:55;;;;;;;35.80;13.77;;;7.30;100.00;;;;;;4945700;29;20047;-72
2024/03/22 03:54:21;;;;;;;31.77;14.30;;;7.30;100.00;;;;;;4926236;29;20397;-73
2024/03/22 03:56:46;;;;;;;40.63;14.45;;;7.30;100.00;;;;;;4945526;29;20058;-73
2024/03/22 03:59:12;;;;;;;39.53;14.77;;;7.40;100.00;;;;;;4944815;28;20047;-73
2024/03/22 04:01:38;;;;;;;42.20;15.27;;;7.30;100.00;;;;;;4943097;28;20071;-73
2024/03/22 04:04:04;;;;;;;37.17;15.57;;;7.30;100.00;;;;;;4945154;28;20077;-73
2024/03/22 04:06:30;;;;;;;41.65;15.27;;;7.30;100.00;;;;;;4944857;28;20141;-73
2024/03/22 04:08:57;;;;;;;39.17;15.18;;;7.30;100.00;;;;;;4945449;29;20078;-73
2024/03/22 04:11:23;;;;;;;36.67;14.85;;;7.40;100.00;;;;;;4942726;29;20058;-73
2024/03/22 04:13:49;;;;;;;35.85;14.45;;;7.40;100.00;;;;;;4929010;29;20063;-73
2024/03/22 04:16:15;;;;;;;41.75;14.02;;;7.30;100.00;;;;;;4945439;29;20794;-73
2024/03/22 04:18:41;;;;;;;39.95;15.18;;;7.30;100.00;;;;;;4943875;28;20058;-73
2024/03/22 04:21:07;;;;;;;44.28;15.07;;;7.30;100.00;;;;;;4928568;29;20063;-73
2024/03/22 04:23:32;;;;;;;45.03;16.08;;;7.30;100.00;;;;;;4936682;28;20063;-74
2024/03/22 04:26:00;;;;;;;37.22;14.82;;;7.30;100.00;;;;;;4945868;28;20063;-73
2024/03/22 04:28:28;;;;;;;39.22;15.63;;;7.40;100.00;;;;;;4926493;29;20087;-73
2024/03/22 04:31:00;;;;;;;35.72;15.23;;;7.40;100.00;;;;;;4930345;29;20055;-73
2024/03/22 04:33:27;;;;;;;44.17;15.95;;;7.30;100.00;;;;;;4941743;28;20051;-74
2024/03/22 04:35:54;;;;;;;39.08;15.52;;;7.30;100.00;;;;;;4945081;28;20043;-72
2024/03/22 04:38:20;;;;;;;47.22;17.40;;;7.30;100.00;;;;;;4944391;28;20059;-73
2024/03/22 04:40:46;;;;;;;38.47;16.27;;;7.30;100.00;;;;;;4930001;29;20098;-76
2024/03/22 04:43:12;;;;;;;45.80;17.05;;;7.30;100.00;;;;;;4944121;28;20485;-76
2024/03/22 04:45:38;;;;;;;42.13;17.10;;;7.40;100.00;;;;;;4930574;29;20066;-75
2024/03/22 04:48:04;;;;;;;50.25;17.27;;;7.30;100.00;;;;;;4946164;28;20084;-77
2024/03/22 04:50:31;;;;;;;40.88;15.88;;;7.30;100.00;;;;;;4929528;29;20152;-75
2024/03/22 04:52:57;;;;;;;39.10;17.02;;;7.40;100.00;;;;;;4946283;28;20063;-76
2024/03/22 04:55:23;;;;;;;43.95;17.08;;;7.40;100.00;;;;;;4946817;28;20044;-75
2024/03/22 04:57:49;;;;;;;55.80;17.48;;;7.40;100.00;;;;;;4946942;29;20066;-75
2024/03/22 05:00:15;;;;;;;47.47;18.25;;;7.40;100.00;;;;;;4946620;29;20699;-75
2024/03/22 05:02:42;;;;;;;43.78;16.90;;;7.40;100.00;;;;;;4946152;29;20098;-76
2024/03/22 05:05:08;;;;;;;46.63;17.40;;;7.40;100.00;;;;;;4929766;29;20066;-76
2024/03/22 05:07:34;;;;;;;46.88;16.58;;;7.50;100.00;;;;;;4946380;28;20051;-76
2024/03/22 05:10:00;;;;;;;44.92;17.27;;;7.50;100.00;;;;;;4946123;29;20059;-76
2024/03/22 05:12:25;;;;;;;42.13;16.70;;;7.50;100.00;;;;;;4941694;29;20434;-76
2024/03/22 05:14:51;;;;;;;45.13;16.95;;;7.50;100.00;;;;;;4945586;28;20129;-75
2024/03/22 05:17:17;;;;;;;46.90;18.33;;;7.50;100.00;;;;;;4923843;29;20063;-75
2024/03/22 05:19:43;;;;;;;43.90;17.65;;;7.50;100.00;;;;;;4929801;29;20066;-75
2024/03/22 05:22:09;;;;;;;49.15;19.77;;;7.50;100.00;;;;;;4946538;28;20067;-75
2024/03/22 05:24:35;;;;;;;51.50;19.40;;;7.50;100.00;;;;;;4944900;28;20054;-75
2024/03/22 05:27:00;;;;;;;48.30;18.35;;;7.50;100.00;;;;;;4945182;28;20058;-76
2024/03/22 05:29:26;;;;;;;46.67;18.40;;;7.60;100.00;;;;;;4943450;28;20055;-77
2024/03/22 05:31:52;;;;;;;50.58;19.50;;;7.60;100.00;;;;;;4937608;29;20051;-77
2024/03/22 05:34:18;;;;;;;45.08;18.15;;;7.60;100.00;;;;;;4946936;29;20055;-79
2024/03/22 05:36:46;;;;;;;52.65;20.13;;;7.60;100.00;;;;;;4947129;29;20051;-78
2024/03/22 05:39:12;;;;;;;50.80;19.67;;;7.60;100.00;;;;;;4932775;29;20055;-78
2024/03/22 05:41:38;;;;;;;50.63;18.50;;;7.60;100.00;;;;;;4934577;29;20062;-79
2024/03/22 05:44:04;;;;;;;47.53;18.80;;;7.60;100.00;;;;;;4943172;29;20047;-80
2024/03/22 05:46:31;;;;;;;52.65;20.00;;;7.70;100.00;;;;;;4940037;28;20429;-76
2024/03/22 05:48:58;;;;;;;60.00;21.73;;;7.70;100.00;;;;;;4945410;28;20826;-78
2024/03/22 05:51:25;;;;;;;52.60;20.55;;;7.70;100.00;;;;;;4945404;28;20504;-79
2024/03/22 05:53:51;;;;;;;51.55;20.80;;;7.70;100.00;;;;;;4930788;28;20062;-75
2024/03/22 05:56:17;;;;;;;54.67;21.42;;;7.70;100.00;;;;;;4941082;29;20052;-74
2024/03/22 05:58:42;;;;;;;54.92;20.20;;;7.70;100.00;;;;;;4943523;28;20063;-76
2024/03/22 06:01:08;;;;;;;50.40;20.17;;;7.80;100.00;;;;;;4947310;28;20109;-77
2024/03/22 06:03:34;;;;;;;54.03;21.80;;;7.80;100.00;;;;;;4947996;28;20787;-72
2024/03/22 06:06:00;;;;;;;54.15;20.85;;;7.80;100.00;;;;;;4931634;28;20488;-72
2024/03/22 06:08:27;;;;;;;56.38;21.08;;;7.80;100.00;;;;;;4928841;28;20083;-76
2024/03/22 06:10:55;;;;;;;56.53;20.67;;;7.80;100.00;;;;;;4927181;29;20058;-72
2024/03/22 06:13:21;;;;;;;56.47;22.60;;;7.80;100.00;;;;;;4946364;29;20052;-76
2024/03/22 06:15:51;;;;;;;56.28;21.42;;;7.80;100.00;;;;;;4946145;28;20531;-76
2024/03/22 06:18:17;;;;;;;58.58;22.88;;;7.90;100.00;;;;;;4948769;28;20786;-76
2024/03/22 06:20:43;;;;;;;55.05;21.38;;;7.80;100.00;;;;;;4947254;28;20440;-76
2024/03/22 06:23:09;;;;;;;60.38;22.08;;;7.90;100.00;;;;;;4947572;29;20059;-75
2024/03/22 06:25:36;;;;;;;56.42;20.55;;;7.90;100.00;;;;;;4946695;29;20059;-75
2024/03/22 06:28:02;;;;;;;58.63;21.50;;;7.90;100.00;;;;;;4944114;28;20055;-74
2024/03/22 06:30:27;;;;;;;54.15;22.98;;;7.90;100.00;;;;;;4945267;28;20054;-72
2024/03/22 06:32:54;;;;;;;56.22;21.95;;;8.00;100.00;;;;;;4948182;28;20795;-73
2024/03/22 06:35:21;;;;;;;49.30;20.55;;;8.00;100.00;;;;;;4939479;29;20055;-73
2024/03/22 06:37:48;;;;;;;63.60;23.27;;;8.00;100.00;;;;;;4940472;28;20066;-74
2024/03/22 06:40:14;;;;;;;61.97;21.92;;;8.00;100.00;;;;;;4947210;29;20043;-73
2024/03/22 06:42:40;;;;;;;65.63;22.80;;;8.00;100.00;;;;;;4946004;28;20070;-72
2024/03/22 06:45:07;;;;;;;64.10;22.90;;;8.00;100.00;;;;;;4943773;28;20055;-71
2024/03/22 06:47:33;;;;;;;65.72;22.48;;;8.10;100.00;;;;;;4926926;28;20067;-72
2024/03/22 06:49:59;;;;;;;57.03;23.77;;;8.10;100.00;;;;;;4941018;28;20058;-72
2024/03/22 06:52:25;;;;;;;66.82;22.88;;;8.10;100.00;;;;;;4938306;28;20047;-72
2024/03/22 06:54:52;;;;;;;60.25;23.27;;;8.20;100.00;;;;;;4923856;28;20051;-73
2024/03/22 06:57:17;;;;;;;55.13;23.85;;;8.20;100.00;;;;;;4930979;28;20113;-72
2024/03/22 06:59:43;;;;;;;69.22;23.52;;;8.20;100.00;;;;;;4946720;28;20055;-72
2024/03/22 07:02:09;;;;;;;71.38;25.63;;;8.20;100.00;;;;;;4931127;29;20059;-72
2024/03/22 07:04:35;;;;;;;64.00;23.55;;;8.30;100.00;;;;;;4946613;28;20059;-73
2024/03/22 07:07:01;;;;;;;57.90;23.13;;;8.30;100.00;;;;;;4945213;29;20055;-73
2024/03/22 07:09:29;;;;;;;63.35;23.33;;;8.30;100.00;;;;;;4930974;29;20143;-74
2024/03/22 07:11:55;;;;;;;61.78;23.25;;;8.30;100.00;;;;;;4944749;28;20055;-73
2024/03/22 07:14:24;;;;;;;60.95;22.85;;;8.40;100.00;;;;;;4929062;29;20864;-74
2024/03/22 07:16:50;;;;;;;63.50;23.77;;;8.40;100.00;;;;;;4946106;28;20058;-74
2024/03/22 07:19:16;;;;;;;59.33;23.08;;;8.50;100.00;;;;;;4946687;28;20058;-74
2024/03/22 07:21:42;;;;;;;55.50;22.27;;;8.50;100.00;;;;;;4950409;28;20118;-74
2024/03/22 07:24:08;;;;;;;61.80;23.23;;;8.60;100.00;;;;;;4946265;28;20063;-74
2024/03/22 07:26:33;;;;;;;57.20;22.42;;;8.70;100.00;;;;;;4945679;29;20150;-73
2024/03/22 07:29:00;;;;;;;58.47;22.90;;;8.70;100.00;;;;;;4936465;29;20087;-74
2024/03/22 07:31:25;;;;;;;63.17;25.40;;;8.80;100.00;;;;;;4947881;28;20051;-73
2024/03/22 07:33:53;;;;;;;67.30;23.52;;;8.90;100.00;;;;;;4930040;29;20051;-74
2024/03/22 07:36:19;;;;;;;58.67;24.13;;;8.90;100.00;;;;;;4946750;29;20057;-73
2024/03/22 07:38:45;;;;;;;57.75;23.75;;;9.00;100.00;;;;;;4922682;29;20062;-74
2024/03/22 07:41:11;;;;;;;68.30;26.85;;;9.00;100.00;;;;;;4945666;28;20083;-74
2024/03/22 07:43:37;;;;;;;61.10;23.92;;;9.10;100.00;;;;;;4944485;28;20098;-73
2024/03/22 07:46:03;;;;;;;60.47;24.83;;;9.20;100.00;;;;;;4928844;29;20602;-73
2024/03/22 07:48:28;;;;;;;58.35;24.65;;;9.30;100.00;;;;;;4922718;29;20052;-72
2024/03/22 07:50:58;;;;;;;63.40;24.55;;;9.30;100.00;;;;;;4944704;29;20544;-73
2024/03/22 07:53:24;;;;;;;62.85;24.58;;;9.40;100.00;;;;;;4944366;29;20055;-73
2024/03/22 07:55:50;;;;;;;64.97;25.75;;;9.40;100.00;;;;;;4928288;29;20428;-72
2024/03/22 07:58:16;;;;;;;56.78;24.20;;;9.50;100.00;;;;;;4928535;29;20054;-73
2024/03/22 08:00:42;;;;;;;62.53;24.73;;;9.60;100.00;;;;;;4942962;29;20121;-74
2024/03/22 08:03:13;;;;;;;61.20;23.77;;;9.60;100.00;;;;;;4923356;29;20057;-73
2024/03/22 08:05:39;;;;;;;66.80;24.50;;;9.70;100.00;;;;;;4944512;29;20801;-73
2024/03/22 08:08:05;;;;;;;59.25;25.15;;;9.80;100.00;;;;;;4944580;28;20063;-74
2024/03/22 08:10:31;;;;;;;63.92;25.45;;;9.80;100.00;;;;;;4943729;29;20047;-73
2024/03/22 08:12:57;;;;;;;64.25;24.98;;;9.90;100.00;;;;;;4941794;28;20101;-74
2024/03/22 08:15:23;;;;;;;65.55;25.30;;;9.90;100.00;;;;;;4942103;29;20047;-74
2024/03/22 08:17:48;;;;;;;63.55;25.05;;;9.80;100.00;;;;;;4945999;28;20606;-73
2024/03/22 08:20:15;;;;;;;63.08;26.55;;;9.90;100.00;;;;;;4945035;28;20059;-74
2024/03/22 08:22:41;;;;;;;60.05;25.60;;;9.90;100.00;;;;;;4944212;28;20816;-74
2024/03/22 08:25:07;;;;;;;57.47;26.55;;;9.80;100.00;;;;;;4929080;29;20063;-74
2024/03/22 08:27:34;;;;;;;66.97;26.45;;;9.80;100.00;;;;;;4944912;29;20067;-74
2024/03/22 08:30:00;;;;;;;60.17;24.95;;;9.90;100.00;;;;;;4945261;28;20118;-74
2024/03/22 08:32:27;;;;;;;68.07;26.92;;;10.00;100.00;;;;;;4946416;28;20507;-74
2024/03/22 08:34:53;;;;;;;63.38;26.65;;;10.10;100.00;;;;;;4950095;28;20039;-74
2024/03/22 08:37:19;;;;;;;64.43;26.85;;;10.20;100.00;;;;;;4945705;29;20264;-75
2024/03/22 08:39:45;;;;;;;69.22;26.33;;;10.20;100.00;;;;;;4946165;28;20090;-75
2024/03/22 08:42:11;;;;;;;66.97;28.17;;;10.10;100.00;;;;;;4954770;28;20604;-75
2024/03/22 08:44:37;;;;;;;66.75;26.58;;;10.10;100.00;;;;;;4944506;29;20151;-75
2024/03/22 08:47:03;;;;;;;70.40;27.15;;;10.10;100.00;;;;;;4944928;28;20059;-76
2024/03/22 08:49:30;;;;;;;66.70;28.00;;;10.10;100.00;;;;;;4928262;29;20051;-77
2024/03/22 08:51:56;;;;;;;66.70;28.23;;;10.10;100.00;;;;;;4923634;29;20098;-75
2024/03/22 08:54:21;;;;;;;69.75;28.55;;;10.10;100.00;;;;;;4941685;28;20079;-76
2024/03/22 08:56:47;;;;;;;68.22;29.15;;;10.20;100.00;;;;;;4939424;28;20051;-76
2024/03/22 08:59:13;;;;;;;71.57;28.77;;;10.20;100.00;;;;;;4923628;29;20800;-76
2024/03/22 09:01:39;;;;;;;76.70;29.92;;;10.30;100.00;;;;;;4921976;28;20059;-76
2024/03/22 09:04:05;;;;;;;74.80;32.28;;;10.30;100.00;;;;;;4920097;29;20070;-75
2024/03/22 09:06:31;;;;;;;74.03;29.90;;;10.40;100.00;;;;;;4940003;29;20061;-75
2024/03/22 09:08:57;;;;;;;80.93;32.47;;;10.40;100.00;;;;;;4922231;29;20779;-75
2024/03/22 09:11:25;;;;;;;75.13;30.20;;;10.50;100.00;;;;;;4923501;29;20039;-76
2024/03/22 09:13:54;;;;;;;77.35;30.50;;;10.60;100.00;;;;;;4936994;28;20055;-75
2024/03/22 09:16:21;;;;;;;76.55;29.52;;;10.60;100.00;;;;;;4941328;28;20062;-76
2024/03/22 09:18:47;;;;;;;77.50;30.25;;;10.70;100.00;;;;;;4940255;28;20051;-75
2024/03/22 09:21:12;;;;;;;76.57;30.88;;;10.80;100.00;;;;;;4940134;28;20136;-75
2024/03/22 09:23:38;;;;;;;89.65;32.30;;;10.80;100.00;;;;;;4927940;28;20066;-78
2024/03/22 09:26:05;;;;;;;82.95;33.42;;;10.90;100.00;;;;;;4940173;28;20627;-78
2024/03/22 09:28:31;;;;;;;90.38;31.95;;;11.00;100.00;;;;;;4938584;28;20055;-77
2024/03/22 09:30:57;;;;;;;86.63;34.40;;;11.00;100.00;;;;;;4940768;28;20083;-78
2024/03/22 09:33:23;;;;;;;75.18;30.98;;;11.00;100.00;;;;;;4938751;28;20043;-77
2024/03/22 09:35:48;;;;;;;83.47;33.55;;;11.00;100.00;;;;;;4941644;28;20737;-78
2024/03/22 09:38:15;;;;;;;102.30;35.08;;;11.10;100.00;;;;;;4943894;28;20774;-78
2024/03/22 09:40:44;;;;;;;85.03;33.72;;;11.10;100.00;;;;;;4931189;29;20051;-77
2024/03/22 09:43:17;;;;;;;89.57;33.65;;;11.30;100.00;;;;;;4943417;28;20707;-74
2024/03/22 09:45:44;;;;;;;80.28;33.45;;;11.30;100.00;;;;;;4945893;29;20055;-74
2024/03/22 09:48:10;;;;;;;82.07;33.78;;;11.40;100.00;;;;;;4945352;28;20055;-74
2024/03/22 09:50:37;;;;;;;86.18;33.22;;;11.40;100.00;;;;;;4946188;29;20067;-74
2024/03/22 09:53:03;;;;;;;80.45;34.88;;;11.50;100.00;;;;;;4944699;28;20074;-75
2024/03/22 09:55:31;;;;;;;84.18;34.42;;;11.50;100.00;;;;;;4940218;29;20183;-74
2024/03/22 09:57:58;;;;;;;74.28;32.05;;;11.60;100.00;;;;;;4943074;29;20058;-74
2024/03/22 10:00:25;;;;;;;79.30;33.70;;;11.60;100.00;;;;;;4941638;28;20051;-74
2024/03/22 10:02:53;;;;;;;84.90;34.05;;;11.70;100.00;;;;;;4944846;28;20063;-77
2024/03/22 10:05:19;;;;;;;94.03;35.30;;;11.70;100.00;;;;;;4945065;28;20707;-75
2024/03/22 10:07:45;;;;;;;85.05;33.75;;;11.80;100.00;;;;;;4928206;29;20065;-75
2024/03/22 10:10:12;;;;;;;82.15;34.40;;;11.80;100.00;;;;;;4945972;29;20070;-76
2024/03/22 10:12:39;;;;;;;89.55;35.67;;;11.80;100.00;;;;;;4946957;29;20047;-76
2024/03/22 10:15:08;;;;;;;89.05;34.72;;;11.80;100.00;;;;;;4931835;29;20066;-74
2024/03/22 10:17:35;;;;;;;87.90;34.80;;;11.80;100.00;;;;;;4946586;28;20459;-75
2024/03/22 10:20:00;;;;;;;84.80;34.33;;;11.70;100.00;;;;;;4942532;29;20742;-75
2024/03/22 10:22:27;;;;;;;84.53;33.88;;;11.70;100.00;;;;;;4947136;29;20055;-74
2024/03/22 10:24:53;;;;;;;82.63;34.58;;;11.70;100.00;;;;;;4931504;29;20070;-75
2024/03/22 10:27:20;;;;;;;80.18;32.53;;;11.80;100.00;;;;;;4943125;28;20066;-74
2024/03/22 10:29:47;;;;;;;87.07;34.95;;;11.80;100.00;;;;;;4929803;29;20114;-74
2024/03/22 10:32:13;;;;;;;77.03;32.58;;;11.90;100.00;;;;;;4945258;28;20058;-75
2024/03/22 10:34:42;;;;;;;85.70;35.25;;;11.90;100.00;;;;;;4945313;28;20440;-74
2024/03/22 10:37:14;;;;;;;79.80;32.33;;;12.00;100.00;;;;;;4930315;29;20051;-74
2024/03/22 10:39:41;;;;;;;83.70;35.00;;;11.90;100.00;;;;;;4943865;28;20066;-75
2024/03/22 10:42:06;;;;;;;88.88;34.45;;;11.80;100.00;;;;;;4946143;28;20129;-74
2024/03/22 10:44:32;;;;;;;83.65;33.60;;;11.80;100.00;;;;;;4945233;29;20141;-75
2024/03/22 10:47:03;;;;;;;92.50;36.22;;;11.70;100.00;;;;;;4945510;28;20066;-73
2024/03/22 10:49:30;;;;;;;82.93;33.30;;;11.60;100.00;;;;;;4944603;28;20051;-75
2024/03/22 10:52:01;;;;;;;82.57;32.78;;;11.60;100.00;;;;;;4945676;28;20105;-74
2024/03/22 10:54:40;;;;;;;80.47;31.67;;;11.40;100.00;;;;;;4929324;29;20062;-73
2024/03/22 10:57:13;;;;;;;84.03;33.10;;;11.20;100.00;;;;;;4945563;28;20047;-72
2024/03/22 10:59:41;;;;;;;91.80;35.67;;;11.10;100.00;;;;;;4928778;29;20065;-73
2024/03/22 11:02:11;;;;;;;88.75;36.08;;;11.10;100.00;;;;;;4945058;28;20051;-73
2024/03/22 11:04:37;;;;;;;89.25;35.28;;;11.10;100.00;;;;;;4929206;29;20055;-72
2024/03/22 11:07:03;;;;;;;93.13;35.97;;;11.10;100.00;;;;;;4945985;29;20109;-72
2024/03/22 11:09:29;;;;;;;87.15;34.90;;;11.10;100.00;;;;;;4930081;29;20146;-71
2024/03/22 11:12:00;;;;;;;96.95;36.50;;;11.10;100.00;;;;;;4922824;29;20063;-72
2024/03/22 11:14:26;;;;;;;92.07;35.30;;;11.20;100.00;;;;;;4945509;28;20197;-73
2024/03/22 11:16:55;;;;;;;88.97;34.80;;;11.20;100.00;;;;;;4946266;29;20054;-73
2024/03/22 11:19:21;;;;;;;88.70;33.75;;;11.20;100.00;;;;;;4945307;28;20488;-73
2024/03/22 11:21:47;;;;;;;93.20;33.65;;;11.20;100.00;;;;;;4946472;28;20073;-73
2024/03/22 11:24:12;;;;;;;89.88;33.55;;;11.20;100.00;;;;;;4946615;29;20051;-72
2024/03/22 11:26:38;;;;;;;90.47;34.88;;;11.10;100.00;;;;;;4946153;28;20532;-72
2024/03/22 11:29:04;;;;;;;93.60;35.50;;;11.10;100.00;;;;;;4929983;29;20529;-73
2024/03/22 11:31:30;;;;;;;79.25;31.02;;;11.10;100.00;;;;;;4948301;28;20058;-73
2024/03/22 11:33:57;;;;;;;76.53;32.38;;;11.10;100.00;;;;;;4946565;29;20532;-73
2024/03/22 11:36:23;;;;;;;86.78;31.48;;;11.00;100.00;;;;;;4946123;28;20527;-72
2024/03/22 11:38:50;;;;;;;83.82;32.67;;;11.00;100.00;;;;;;4945219;28;20051;-73
2024/03/22 11:41:27;;;;;;;86.75;33.97;;;11.00;100.00;;;;;;4930164;28;20157;-75
2024/03/22 11:43:55;;;;;;;85.22;32.70;;;11.00;100.00;;;;;;4941434;29;20058;-72
2024/03/22 11:46:22;;;;;;;81.60;31.75;;;11.00;100.00;;;;;;4930199;29;20058;-74
2024/03/22 11:48:52;;;;;;;81.57;31.13;;;11.00;100.00;;;;;;4945224;28;20392;-73
2024/03/22 11:51:19;;;;;;;76.43;29.90;;;11.00;100.00;;;;;;4940265;29;20056;-74
2024/03/22 11:53:53;;;;;;;88.43;30.60;;;10.90;100.00;;;;;;4944483;28;20507;-74
2024/03/22 11:56:24;;;;;;;78.28;29.15;;;10.90;100.00;;;;;;4925715;29;20062;-73
2024/03/22 11:58:58;;;;;;;81.88;31.48;;;10.80;100.00;;;;;;4918859;28;20075;-73
2024/03/22 12:01:25;;;;;;;82.93;31.92;;;10.80;100.00;;;;;;4942654;28;20059;-74
2024/03/22 12:03:51;;;;;;;84.00;32.03;;;10.80;100.00;;;;;;4945155;29;20051;-73
2024/03/22 12:06:16;;;;;;;85.47;32.40;;;10.80;100.00;;;;;;4945087;29;20062;-74
2024/03/22 12:08:42;;;;;;;83.70;31.08;;;10.90;100.00;;;;;;4945238;29;20419;-74
2024/03/22 12:11:10;;;;;;;79.20;30.33;;;10.90;100.00;;;;;;4929669;29;20063;-74
2024/03/22 12:13:37;;;;;;;68.65;28.38;;;10.90;100.00;;;;;;4929828;28;20051;-72
2024/03/22 12:16:04;;;;;;;75.30;28.27;;;11.10;100.00;;;;;;4944832;29;20047;-73
2024/03/22 12:18:29;;;;;;;71.28;26.85;;;11.20;100.00;;;;;;4929915;29;20054;-73